Time,TemperatureF,DewpointF,PressureIn,WindDirection,WindDirectionDegrees,WindSpeedMPH,WindSpeedGustMPH,Humidity,HourlyPrecipIn,Conditions,Clouds,dailyrainin,SoftwareType,DateUTC
2013-09-08 00:00:00,65.0,55.0,29.84,SW,223,3.0,7.0,70,0.00,,,0.00,weatherlink.com 1.10,2013-09-08 04:00:00,
2013-09-08 00:15:00,65.0,55.0,29.83,SW,226,5.0,7.0,70,0.00,,,0.00,weatherlink.com 1.10,2013-09-08 04:15:00,
2013-09-08 00:30:00,65.0,55.0,29.83,WSW,239,7.0,8.0,70,0.00,,,0.00,weatherlink.com 1.10,2013-09-08 04:30:00,
2013-09-08 00:45:00,65.1,55.0,29.83,SW,236,5.0,8.0,70,0.00,,,0.00,weatherlink.com 1.10,2013-09-08 04:45:00,
2013-09-08 01:00:00,64.7,55.0,29.83,SSW,204,4.0,8.0,72,0.00,,,0.00,weatherlink.com 1.10,2013-09-08 05:00:00,
2013-09-08 01:15:00,64.5,55.0,29.83,SSW,210,5.0,7.0,72,0.00,,,0.00,weatherlink.com 1.10,2013-09-08 05:15:00,
2013-09-08 01:30:00,64.4,55.0,29.82,SW,225,6.0,9.0,72,0.00,,,0.00,weatherlink.com 1.10,2013-09-08 05:30:00,
2013-09-08 01:45:00,64.3,55.0,29.82,SW,226,4.0,8.0,72,0.00,,,0.00,weatherlink.com 1.10,2013-09-08 05:45:00,
2013-09-08 02:00:00,64.3,55.0,29.82,WSW,244,5.0,9.0,73,0.00,,,0.00,weatherlink.com 1.10,2013-09-08 06:00:00,
2013-09-08 02:15:00,64.3,55.0,29.82,SW,217,5.0,9.0,73,0.00,,,0.00,weatherlink.com 1.10,2013-09-08 06:15:00,
2013-09-08 02:30:00,64.2,56.0,29.82,SSW,211,4.0,8.0,74,0.00,,,0.00,weatherlink.com 1.10,2013-09-08 06:30:00,
2013-09-08 02:45:00,64.1,56.0,29.81,SSW,212,5.0,7.0,75,0.00,,,0.00,weatherlink.com 1.10,2013-09-08 06:45:00,
2013-09-08 03:00:00,63.9,56.0,29.81,SW,216,4.0,6.0,76,0.00,,,0.00,weatherlink.com 1.10,2013-09-08 07:00:00,
2013-09-08 03:15:00,63.6,56.0,29.80,SW,217,4.0,6.0,77,0.00,,,0.00,weatherlink.com 1.10,2013-09-08 07:15:00,
2013-09-08 03:30:00,63.3,57.0,29.80,SW,225,2.0,5.0,80,0.00,,,0.00,weatherlink.com 1.10,2013-09-08 07:30:00,
2013-09-08 03:45:00,62.7,58.0,29.79,SW,227,2.0,5.0,83,0.00,,,0.00,weatherlink.com 1.10,2013-09-08 07:45:00,
2013-09-08 04:00:00,62.1,57.0,29.79,SW,227,2.0,3.0,83,0.00,,,0.00,weatherlink.com 1.10,2013-09-08 08:00:00,
2013-09-08 04:15:00,61.7,58.0,29.78,SW,227,3.0,5.0,86,0.00,,,0.00,weatherlink.com 1.10,2013-09-08 08:15:00,
2013-09-08 04:30:00,61.3,57.0,29.78,SW,227,2.0,3.0,87,0.00,,,0.00,weatherlink.com 1.10,2013-09-08 08:30:00,
2013-09-08 04:45:00,61.0,57.0,29.78,SW,224,3.0,5.0,86,0.00,,,0.00,weatherlink.com 1.10,2013-09-08 08:45:00,
2013-09-08 05:00:00,61.3,57.0,29.78,SW,224,3.0,4.0,86,0.00,,,0.00,weatherlink.com 1.10,2013-09-08 09:00:00,
2013-09-08 05:15:00,61.4,58.0,29.78,SW,224,3.0,4.0,87,0.00,,,0.00,weatherlink.com 1.10,2013-09-08 09:15:00,
2013-09-08 05:30:00,61.2,57.0,29.78,SW,223,3.0,6.0,86,0.00,,,0.00,weatherlink.com 1.10,2013-09-08 09:30:00,
2013-09-08 05:46:00,61.4,57.0,29.77,WSW,237,4.0,6.0,85,0.00,,,0.00,weatherlink.com 1.10,2013-09-08 09:46:00,
2013-09-08 06:01:00,61.5,57.0,29.77,SSW,209,2.0,5.0,85,0.00,,,0.00,weatherlink.com 1.10,2013-09-08 10:01:00,
2013-09-08 06:16:00,61.4,57.0,29.77,SSW,209,0.0,4.0,85,0.00,,,0.00,weatherlink.com 1.10,2013-09-08 10:16:00,
2013-09-08 06:31:00,61.4,57.0,29.78,SW,223,3.0,6.0,85,0.00,,,0.00,weatherlink.com 1.10,2013-09-08 10:31:00,
2013-09-08 06:46:00,61.6,57.0,29.78,SW,221,2.0,4.0,86,0.00,,,0.00,weatherlink.com 1.10,2013-09-08 10:46:00,
2013-09-08 07:01:00,61.5,57.0,29.79,SW,222,1.0,2.0,86,0.00,,,0.00,weatherlink.com 1.10,2013-09-08 11:01:00,
2013-09-08 07:16:00,61.6,57.0,29.79,SW,222,3.0,3.0,86,0.00,,,0.00,weatherlink.com 1.10,2013-09-08 11:16:00,
2013-09-08 07:31:00,61.7,58.0,29.79,SSW,209,4.0,5.0,87,0.00,,,0.00,weatherlink.com 1.10,2013-09-08 11:31:00,
2013-09-08 07:46:00,61.9,58.0,29.79,SSW,201,2.0,5.0,87,0.00,,,0.00,weatherlink.com 1.10,2013-09-08 11:46:00,
2013-09-08 08:01:00,62.2,58.0,29.78,SW,222,3.0,6.0,85,0.00,,,0.00,weatherlink.com 1.10,2013-09-08 12:01:00,
2013-09-08 08:16:00,62.7,58.0,29.78,WSW,252,3.0,6.0,84,0.00,,,0.00,weatherlink.com 1.10,2013-09-08 12:16:00,
2013-09-08 08:31:00,63.7,59.0,29.79,WSW,255,6.0,6.0,83,0.00,,,0.00,weatherlink.com 1.10,2013-09-08 12:31:00,
2013-09-08 08:46:00,63.6,59.0,29.79,WSW,242,2.0,4.0,84,0.00,,,0.00,weatherlink.com 1.10,2013-09-08 12:46:00,
2013-09-08 09:01:00,64.2,59.0,29.78,SW,215,3.0,5.0,83,0.00,,,0.00,weatherlink.com 1.10,2013-09-08 13:01:00,
2013-09-08 09:16:00,65.6,60.0,29.78,WSW,243,1.0,5.0,82,0.00,,,0.00,weatherlink.com 1.10,2013-09-08 13:16:00,
2013-09-08 09:31:00,66.2,60.0,29.79,WNW,287,0.0,4.0,80,0.00,,,0.00,weatherlink.com 1.10,2013-09-08 13:31:00,
2013-09-08 09:46:00,66.6,61.0,29.79,WNW,290,0.0,2.0,81,0.00,,,0.00,weatherlink.com 1.10,2013-09-08 13:46:00,
2013-09-08 10:01:00,67.7,61.0,29.79,ENE,58,0.0,3.0,79,0.00,,,0.00,weatherlink.com 1.10,2013-09-08 14:01:00,
2013-09-08 10:16:00,68.2,61.0,29.79,ENE,58,0.0,2.0,79,0.00,,,0.00,weatherlink.com 1.10,2013-09-08 14:16:00,
2013-09-08 10:31:00,69.5,62.0,29.79,WNW,300,2.0,6.0,77,0.00,,,0.00,weatherlink.com 1.10,2013-09-08 14:31:00,
2013-09-08 10:46:00,69.9,62.0,29.80,North,360,2.0,6.0,77,0.00,,,0.00,weatherlink.com 1.10,2013-09-08 14:46:00,
2013-09-08 11:01:00,69.0,62.0,29.80,NE,42,0.0,5.0,78,0.00,,,0.00,weatherlink.com 1.10,2013-09-08 15:01:00,
2013-09-08 11:16:00,68.2,62.0,29.80,NNE,30,0.0,6.0,81,0.00,,,0.00,weatherlink.com 1.10,2013-09-08 15:16:00,
2013-09-08 11:31:00,69.6,63.0,29.80,NW,321,1.0,8.0,79,0.00,,,0.00,weatherlink.com 1.10,2013-09-08 15:31:00,
2013-09-08 11:46:00,70.0,65.0,29.80,East,85,3.0,9.0,83,0.00,,,0.00,weatherlink.com 1.10,2013-09-08 15:46:00,
2013-09-08 12:01:00,70.6,63.0,29.79,ENE,78,5.0,8.0,78,0.00,,,0.00,weatherlink.com 1.10,2013-09-08 16:01:00,
2013-09-08 12:16:00,72.2,64.0,29.79,NNE,19,2.0,10.0,75,0.00,,,0.00,weatherlink.com 1.10,2013-09-08 16:16:00,
2013-09-08 12:31:00,72.6,64.0,29.79,NNE,27,4.0,8.0,74,0.00,,,0.00,weatherlink.com 1.10,2013-09-08 16:31:00,
2013-09-08 12:46:00,73.0,64.0,29.78,NNE,19,3.0,12.0,73,0.00,,,0.00,weatherlink.com 1.10,2013-09-08 16:46:00,
2013-09-08 13:01:00,73.9,64.0,29.79,North,355,6.0,13.0,70,0.00,,,0.00,weatherlink.com 1.10,2013-09-08 17:01:00,
2013-09-08 13:17:00,75.1,65.0,29.79,North,11,5.0,11.0,70,0.00,,,0.00,weatherlink.com 1.10,2013-09-08 17:17:00,
2013-09-08 13:32:00,74.3,63.0,29.79,North,5,9.0,13.0,69,0.00,,,0.00,weatherlink.com 1.10,2013-09-08 17:32:00,
2013-09-08 13:47:00,72.7,62.0,29.79,NE,51,8.0,13.0,68,0.00,,,0.00,weatherlink.com 1.10,2013-09-08 17:47:00,
2013-09-08 14:02:00,74.7,63.0,29.80,NNE,13,7.0,14.0,66,0.00,,,0.00,weatherlink.com 1.10,2013-09-08 18:02:00,
2013-09-08 14:17:00,73.7,59.0,29.80,NNE,33,10.0,17.0,61,0.00,,,0.00,weatherlink.com 1.10,2013-09-08 18:17:00,
2013-09-08 14:32:00,74.2,58.0,29.80,NNE,31,6.0,11.0,58,0.00,,,0.00,weatherlink.com 1.10,2013-09-08 18:32:00,
2013-09-08 14:47:00,72.5,54.0,29.81,North,10,7.0,17.0,53,0.00,,,0.00,weatherlink.com 1.10,2013-09-08 18:47:00,
2013-09-08 15:02:00,72.1,53.0,29.82,NNE,16,8.0,15.0,52,0.00,,,0.00,weatherlink.com 1.10,2013-09-08 19:02:00,
2013-09-08 15:17:00,71.6,51.0,29.82,North,350,10.0,15.0,48,0.00,,,0.00,weatherlink.com 1.10,2013-09-08 19:17:00,
2013-09-08 15:32:00,70.9,50.0,29.82,ENE,74,12.0,15.0,47,0.00,,,0.00,weatherlink.com 1.10,2013-09-08 19:32:00,
2013-09-08 15:47:00,71.0,50.0,29.83,NE,34,7.0,14.0,47,0.00,,,0.00,weatherlink.com 1.10,2013-09-08 19:47:00,
2013-09-08 16:02:00,70.6,49.0,29.83,NNW,346,6.0,14.0,46,0.00,,,0.00,weatherlink.com 1.10,2013-09-08 20:02:00,
2013-09-08 16:17:00,70.1,49.0,29.83,NE,41,5.0,13.0,47,0.00,,,0.00,weatherlink.com 1.10,2013-09-08 20:17:00,
2013-09-08 16:32:00,70.1,49.0,29.84,ENE,75,7.0,11.0,48,0.00,,,0.00,weatherlink.com 1.10,2013-09-08 20:32:00,
2013-09-08 16:47:00,69.9,49.0,29.84,NE,45,3.0,13.0,47,0.00,,,0.00,weatherlink.com 1.10,2013-09-08 20:47:00,
2013-09-08 17:02:00,69.5,49.0,29.84,NNE,26,9.0,13.0,48,0.00,,,0.00,weatherlink.com 1.10,2013-09-08 21:02:00,
2013-09-08 17:17:00,68.5,47.0,29.85,ENE,57,7.0,15.0,47,0.00,,,0.00,weatherlink.com 1.10,2013-09-08 21:17:00,
2013-09-08 17:32:00,68.2,48.0,29.86,NE,56,5.0,12.0,48,0.00,,,0.00,weatherlink.com 1.10,2013-09-08 21:32:00,
2013-09-08 17:47:00,67.8,48.0,29.87,NE,47,5.0,11.0,50,0.00,,,0.00,weatherlink.com 1.10,2013-09-08 21:47:00,
2013-09-08 18:02:00,67.2,48.0,29.88,NNE,30,5.0,12.0,51,0.00,,,0.00,weatherlink.com 1.10,2013-09-08 22:02:00,
2013-09-08 18:17:00,66.6,48.0,29.89,NE,55,3.0,9.0,52,0.00,,,0.00,weatherlink.com 1.10,2013-09-08 22:17:00,
2013-09-08 18:32:00,65.8,48.0,29.90,NE,44,3.0,7.0,53,0.00,,,0.00,weatherlink.com 1.10,2013-09-08 22:32:00,
2013-09-08 18:47:00,65.0,48.0,29.90,NE,55,4.0,7.0,55,0.00,,,0.00,weatherlink.com 1.10,2013-09-08 22:47:00,
2013-09-08 19:02:00,64.0,48.0,29.91,NNE,13,2.0,9.0,56,0.00,,,0.00,weatherlink.com 1.10,2013-09-08 23:02:00,
2013-09-08 19:17:00,62.9,48.0,29.92,East,80,5.0,7.0,58,0.00,,,0.00,weatherlink.com 1.10,2013-09-08 23:17:00,
2013-09-08 19:32:00,61.8,48.0,29.92,ENE,78,4.0,10.0,60,0.00,,,0.00,weatherlink.com 1.10,2013-09-08 23:32:00,
2013-09-08 19:47:00,61.1,47.0,29.93,NE,47,3.0,10.0,60,0.00,,,0.00,weatherlink.com 1.10,2013-09-08 23:47:00,
2013-09-08 20:02:00,60.5,47.0,29.95,NE,47,2.0,5.0,61,0.00,,,0.00,weatherlink.com 1.10,2013-09-09 00:02:00,
2013-09-08 20:18:00,60.1,46.0,29.96,NE,54,3.0,9.0,60,0.00,,,0.00,weatherlink.com 1.10,2013-09-09 00:18:00,
2013-09-08 20:33:00,59.4,46.0,29.97,NE,55,3.0,7.0,62,0.00,,,0.00,weatherlink.com 1.10,2013-09-09 00:33:00,
2013-09-08 20:48:00,58.5,46.0,29.98,NE,53,3.0,6.0,64,0.00,,,0.00,weatherlink.com 1.10,2013-09-09 00:48:00,
2013-09-08 21:03:00,57.9,46.0,29.99,East,84,1.0,5.0,65,0.00,,,0.00,weatherlink.com 1.10,2013-09-09 01:03:00,
2013-09-08 21:18:00,57.4,46.0,30.00,ESE,119,1.0,3.0,65,0.00,,,0.00,weatherlink.com 1.10,2013-09-09 01:18:00,
2013-09-08 21:33:00,56.6,45.0,30.01,ESE,117,1.0,3.0,66,0.00,,,0.00,weatherlink.com 1.10,2013-09-09 01:33:00,
2013-09-08 21:48:00,56.4,45.0,30.02,South,178,3.0,5.0,66,0.00,,,0.00,weatherlink.com 1.10,2013-09-09 01:48:00,
2013-09-08 22:03:00,55.8,45.0,30.03,SSW,194,0.0,2.0,67,0.00,,,0.00,weatherlink.com 1.10,2013-09-09 02:03:00,
2013-09-08 22:18:00,55.2,45.0,30.03,East,82,0.0,2.0,69,0.00,,,0.00,weatherlink.com 1.10,2013-09-09 02:18:00,
2013-09-08 22:33:00,54.6,45.0,30.03,NNE,15,4.0,6.0,70,0.00,,,0.00,weatherlink.com 1.10,2013-09-09 02:33:00,
2013-09-08 22:48:00,54.4,45.0,30.03,ENE,57,1.0,7.0,70,0.00,,,0.00,weatherlink.com 1.10,2013-09-09 02:48:00,
2013-09-08 23:03:00,54.1,44.0,30.05,SE,137,3.0,3.0,69,0.00,,,0.00,weatherlink.com 1.10,2013-09-09 03:03:00,
2013-09-08 23:18:00,53.8,44.0,30.05,ESE,112,0.0,4.0,69,0.00,,,0.00,weatherlink.com 1.10,2013-09-09 03:18:00,
2013-09-08 23:33:00,54.0,44.0,30.06,ENE,65,3.0,5.0,68,0.00,,,0.00,weatherlink.com 1.10,2013-09-09 03:33:00,
2013-09-08 23:48:00,53.5,44.0,30.06,ESE,116,1.0,6.0,69,0.00,,,0.00,weatherlink.com 1.10,2013-09-09 03:48:00,